Time;durP1;ratioP1;P1;durP2;ratioP2;P2;SDS_P1;SDS_P2;PMS_P1;PMS_P2;Temp;Humidity;BMP_temperature;BMP_pressure;BME280_temperature;BME280_humidity;BME280_pressure;Samples;Min_cycle;Max_cycle;Signal;HPM_P1;HPM_P2
2023/12/10 00:00:34;;;;;;;0.57;0.57;;;;;;;8.20;100.00;95137.19;5000543;28;20218;-69
2023/12/10 00:03:02;;;;;;;0.40;0.40;;;;;;;8.27;100.00;95138.06;5015939;28;20593;-69
2023/12/10 00:05:29;;;;;;;0.30;0.30;;;;;;;8.13;100.00;95149.41;5015046;28;20202;-69
2023/12/10 00:07:55;;;;;;;0.63;0.30;;;;;;;8.16;100.00;95167.41;5015636;28;20213;-70
2023/12/10 00:10:22;;;;;;;0.33;0.33;;;;;;;8.07;100.00;95189.50;5014459;28;20316;-70
2023/12/10 00:12:48;;;;;;;0.40;0.40;;;;;;;8.13;100.00;95178.25;5015950;28;20271;-68
2023/12/10 00:15:15;;;;;;;0.90;0.70;;;;;;;8.07;100.00;95220.97;5015381;28;20201;-69
2023/12/10 00:17:42;;;;;;;0.47;0.47;;;;;;;8.05;100.00;95222.97;5016447;28;20587;-70
2023/12/10 00:20:10;;;;;;;0.40;0.40;;;;;;;8.16;100.00;95225.13;5001581;28;20798;-69
2023/12/10 00:22:37;;;;;;;0.57;0.57;;;;;;;7.92;100.00;95241.22;5000702;28;20202;-69
2023/12/10 00:25:04;;;;;;;1.40;0.90;;;;;;;8.08;100.00;95233.09;5001880;28;20202;-69
2023/12/10 00:27:30;;;;;;;0.97;0.83;;;;;;;8.09;100.00;95234.72;4998258;28;20213;-70
2023/12/10 00:29:57;;;;;;;1.20;0.80;;;;;;;7.98;100.00;95227.34;4996895;28;20606;-70
2023/12/10 00:32:23;;;;;;;1.47;0.90;;;;;;;7.95;100.00;95232.97;4998073;28;20226;-70
2023/12/10 00:34:50;;;;;;;0.50;0.50;;;;;;;7.98;100.00;95212.44;5000628;28;20764;-70
2023/12/10 00:37:17;;;;;;;0.83;0.70;;;;;;;8.13;100.00;95214.97;4997802;28;20202;-70
2023/12/10 00:39:44;;;;;;;0.77;0.60;;;;;;;7.99;100.00;95231.59;5010373;28;20240;-70
2023/12/10 00:42:10;;;;;;;1.30;1.20;;;;;;;8.02;100.00;95223.38;5004843;28;20221;-70
2023/12/10 00:44:37;;;;;;;0.70;0.70;;;;;;;8.04;100.00;95226.59;4998577;28;20202;-70
2023/12/10 00:47:04;;;;;;;0.93;0.50;;;;;;;8.15;100.00;95228.78;4997651;28;20209;-70
2023/12/10 00:49:30;;;;;;;0.80;0.53;;;;;;;8.06;100.00;95228.03;4997169;28;20210;-70
2023/12/10 00:51:57;;;;;;;0.43;0.40;;;;;;;8.24;100.00;95246.81;4996556;28;20230;-69
2023/12/10 00:54:25;;;;;;;0.70;0.63;;;;;;;8.39;100.00;95244.97;4997830;28;20203;-70
2023/12/10 00:56:51;;;;;;;0.67;0.43;;;;;;;8.29;100.00;95257.56;4998209;28;20198;-70
2023/12/10 00:59:18;;;;;;;14.63;1.23;;;;;;;8.17;100.00;95266.94;4996593;28;20210;-70
2023/12/10 01:01:44;;;;;;;0.70;0.60;;;;;;;8.30;100.00;95292.50;4997025;28;20215;-70
2023/12/10 01:04:11;;;;;;;2.63;0.93;;;;;;;8.26;100.00;95309.63;4997091;28;20206;-70
2023/12/10 01:06:37;;;;;;;0.77;0.70;;;;;;;8.12;100.00;95292.06;5006913;28;20315;-69
2023/12/10 01:09:04;;;;;;;0.87;0.73;;;;;;;8.17;100.00;95297.59;4997020;28;20226;-70
2023/12/10 01:11:32;;;;;;;1.23;0.70;;;;;;;8.23;100.00;95291.63;5000962;28;20238;-71
2023/12/10 01:13:58;;;;;;;0.67;0.67;;;;;;;8.05;100.00;95286.75;4998914;28;20209;-69
2023/12/10 01:16:25;;;;;;;3.73;0.80;;;;;;;8.12;100.00;95307.81;5005067;28;20229;-69
2023/12/10 01:18:51;;;;;;;2.60;0.70;;;;;;;8.14;100.00;95314.53;5000221;28;20203;-70
2023/12/10 01:21:18;;;;;;;0.67;0.40;;;;;;;8.14;100.00;95321.59;5000448;28;20238;-69
2023/12/10 01:23:44;;;;;;;0.67;0.67;;;;;;;8.08;100.00;95331.00;5000316;28;20202;-69
2023/12/10 01:26:13;;;;;;;0.47;0.47;;;;;;;7.92;100.00;95323.31;5000681;28;20289;-69
2023/12/10 01:28:40;;;;;;;1.40;0.73;;;;;;;8.18;100.00;95328.91;5005160;28;20202;-69
2023/12/10 01:31:07;;;;;;;0.60;0.60;;;;;;;8.00;100.00;95328.44;5000472;28;20222;-69
2023/12/10 01:33:33;;;;;;;1.50;0.80;;;;;;;8.09;100.00;95329.16;5000114;28;20241;-69
2023/12/10 01:36:00;;;;;;;1.07;0.70;;;;;;;8.04;100.00;95342.03;5000360;28;20205;-69
2023/12/10 01:38:26;;;;;;;0.50;0.50;;;;;;;7.96;100.00;95339.50;5000174;28;20206;-70
2023/12/10 01:40:53;;;;;;;0.50;0.50;;;;;;;8.05;100.00;95351.53;4999954;28;20228;-69
2023/12/10 01:43:20;;;;;;;0.73;0.73;;;;;;;8.00;100.00;95364.38;5000251;28;20299;-69
2023/12/10 01:45:50;;;;;;;0.83;0.50;;;;;;;8.04;100.00;95368.25;4999934;28;20210;-68
2023/12/10 01:48:20;;;;;;;0.80;0.80;;;;;;;8.02;100.00;95386.00;5000075;28;20284;-69
2023/12/10 01:50:47;;;;;;;0.40;0.40;;;;;;;8.11;100.00;95387.53;5000292;28;20222;-70
2023/12/10 01:53:14;;;;;;;1.33;0.70;;;;;;;8.05;100.00;95401.38;5000166;28;20227;-70
2023/12/10 01:55:41;;;;;;;1.13;0.80;;;;;;;8.02;100.00;95399.13;5000034;28;20207;-69
2023/12/10 01:58:09;;;;;;;0.90;0.60;;;;;;;7.99;100.00;95412.59;4999453;28;20207;-69
2023/12/10 02:00:36;;;;;;;2.30;0.87;;;;;;;8.07;100.00;95415.09;5000096;28;20237;-70
2023/12/10 02:03:04;;;;;;;0.60;0.60;;;;;;;8.08;100.00;95414.13;4999604;28;20657;-69
2023/12/10 02:05:31;;;;;;;3.30;0.63;;;;;;;8.03;100.00;95425.16;4998824;28;20216;-70
2023/12/10 02:07:58;;;;;;;2.37;0.60;;;;;;;8.10;100.00;95431.31;4999524;28;20206;-70
2023/12/10 02:10:25;;;;;;;1.37;0.60;;;;;;;8.08;100.00;95437.72;5000215;28;20241;-70
2023/12/10 02:12:53;;;;;;;3.20;0.67;;;;;;;8.12;100.00;95439.00;4999003;28;20222;-69
2023/12/10 02:15:20;;;;;;;0.40;0.40;;;;;;;8.09;100.00;95455.91;4999364;28;20203;-69
2023/12/10 02:17:48;;;;;;;2.37;1.00;;;;;;;8.03;100.00;95459.28;5004580;28;20661;-69
2023/12/10 02:20:17;;;;;;;0.80;0.73;;;;;;;8.12;100.00;95460.81;5002015;28;20245;-69
2023/12/10 02:22:49;;;;;;;0.60;0.60;;;;;;;8.19;100.00;95472.22;4999594;28;20205;-70
2023/12/10 02:25:24;;;;;;;1.33;1.23;;;;;;;8.26;100.00;95483.66;4998623;28;20207;-69
2023/12/10 02:27:52;;;;;;;0.47;0.40;;;;;;;8.29;100.00;95488.53;4999583;28;20212;-70
2023/12/10 02:30:19;;;;;;;0.60;0.60;;;;;;;8.09;100.00;95482.16;4998583;28;20229;-69
2023/12/10 02:32:45;;;;;;;4.30;0.60;;;;;;;8.25;100.00;95475.94;4999931;28;20226;-69
2023/12/10 02:35:12;;;;;;;5.57;0.87;;;;;;;8.10;100.00;95482.97;4998548;28;20217;-70
2023/12/10 02:37:38;;;;;;;1.40;0.97;;;;;;;8.03;100.00;95484.69;4999307;28;20206;-69
2023/12/10 02:40:06;;;;;;;0.60;0.50;;;;;;;8.09;100.00;95494.47;4998860;28;20739;-69
2023/12/10 02:42:32;;;;;;;0.50;0.50;;;;;;;7.96;100.00;95496.91;4999106;28;20202;-69
2023/12/10 02:45:00;;;;;;;9.63;1.37;;;;;;;8.21;100.00;95490.41;4999027;28;20213;-69
2023/12/10 02:47:27;;;;;;;10.10;1.37;;;;;;;8.16;100.00;95498.84;4998700;28;20202;-69
2023/12/10 02:49:53;;;;;;;2.10;1.20;;;;;;;8.02;100.00;95504.06;4998825;28;20587;-69
2023/12/10 02:52:22;;;;;;;1.13;0.60;;;;;;;8.18;100.00;95506.53;5006520;28;20225;-69
2023/12/10 02:54:48;;;;;;;2.80;0.67;;;;;;;8.00;100.00;95503.41;4998689;28;20205;-69
2023/12/10 02:57:15;;;;;;;1.53;0.90;;;;;;;7.84;100.00;95503.56;4998586;28;20207;-68
2023/12/10 02:59:42;;;;;;;2.33;0.60;;;;;;;8.06;100.00;95519.25;4998729;28;20230;-69
2023/12/10 03:02:09;;;;;;;8.03;1.17;;;;;;;8.18;100.00;95502.09;4999344;28;20207;-70
2023/12/10 03:04:36;;;;;;;2.07;1.00;;;;;;;7.95;100.00;95511.00;4998520;28;20304;-69
2023/12/10 03:07:03;;;;;;;2.03;0.90;;;;;;;8.08;100.00;95513.81;4998702;28;20561;-69
2023/12/10 03:09:29;;;;;;;7.37;0.80;;;;;;;7.87;100.00;95519.75;4997870;28;20268;-69
2023/12/10 03:11:56;;;;;;;3.13;0.70;;;;;;;7.94;100.00;95519.84;4998507;28;20240;-69
2023/12/10 03:14:22;;;;;;;2.87;0.50;;;;;;;7.96;100.00;95523.13;5005159;28;20222;-69
2023/12/10 03:16:49;;;;;;;1.10;0.83;;;;;;;7.93;100.00;95515.63;4999087;28;20222;-69
2023/12/10 03:19:16;;;;;;;4.87;0.83;;;;;;;8.07;100.00;95507.75;4997111;28;20210;-69
2023/12/10 03:21:43;;;;;;;3.30;0.60;;;;;;;7.98;100.00;95515.88;4998499;28;20226;-69
2023/12/10 03:24:09;;;;;;;5.03;0.83;;;;;;;8.04;100.00;95509.91;4998372;28;20202;-69
2023/12/10 03:26:36;;;;;;;10.50;1.00;;;;;;;7.93;100.00;95523.50;5005600;28;20206;-70
2023/12/10 03:29:02;;;;;;;8.87;1.13;;;;;;;8.03;100.00;95532.72;5001678;28;20206;-69
2023/12/10 03:31:29;;;;;;;2.60;1.23;;;;;;;7.85;100.00;95534.03;5005255;28;20225;-70
2023/12/10 03:33:55;;;;;;;5.47;0.93;;;;;;;7.91;100.00;95541.19;4998184;28;20229;-69
2023/12/10 03:36:23;;;;;;;2.77;0.90;;;;;;;7.90;100.00;95534.31;4997689;28;20210;-69
2023/12/10 03:38:50;;;;;;;2.93;0.60;;;;;;;7.91;100.00;95541.19;4998746;28;20209;-70
2023/12/10 03:41:16;;;;;;;2.43;0.63;;;;;;;7.80;100.00;95541.63;5001617;28;20223;-69
2023/12/10 03:43:43;;;;;;;1.60;0.57;;;;;;;7.63;100.00;95540.13;5000882;28;20205;-70
2023/12/10 03:46:09;;;;;;;2.00;1.07;;;;;;;7.75;100.00;95535.28;4998126;28;20221;-69
2023/12/10 03:48:36;;;;;;;0.63;0.50;;;;;;;7.85;100.00;95544.53;4997623;28;20543;-70
2023/12/10 03:51:02;;;;;;;2.97;1.20;;;;;;;7.70;100.00;95538.44;4995919;28;20222;-69
2023/12/10 03:53:30;;;;;;;3.37;0.63;;;;;;;7.90;100.00;95555.31;4997296;28;20264;-69
2023/12/10 03:55:57;;;;;;;2.53;0.70;;;;;;;7.68;100.00;95571.88;4997946;28;20202;-69
2023/12/10 03:58:23;;;;;;;2.83;1.40;;;;;;;7.65;100.00;95561.75;4997366;28;20206;-69
2023/12/10 04:00:50;;;;;;;5.57;0.80;;;;;;;7.64;100.00;95572.41;5005373;28;21069;-69
2023/12/10 04:03:16;;;;;;;4.50;1.10;;;;;;;7.61;100.00;95560.47;4997543;28;20199;-69
2023/12/10 04:05:43;;;;;;;2.33;0.63;;;;;;;7.61;100.00;95557.84;4997596;28;20198;-69
2023/12/10 04:08:10;;;;;;;3.57;0.57;;;;;;;7.47;100.00;95565.63;4996932;28;20206;-69
2023/12/10 04:10:38;;;;;;;1.80;1.07;;;;;;;7.74;100.00;95576.44;4997920;28;20238;-69
2023/12/10 04:13:04;;;;;;;0.77;0.70;;;;;;;7.52;100.00;95585.13;4998922;28;20222;-69
2023/12/10 04:15:31;;;;;;;2.93;0.70;;;;;;;7.49;100.00;95588.06;5006865;28;20222;-69
2023/12/10 04:17:57;;;;;;;1.10;0.57;;;;;;;7.38;100.00;95585.88;4998168;28;20206;-69
2023/12/10 04:20:24;;;;;;;1.50;0.50;;;;;;;7.53;100.00;95601.66;4996803;28;20748;-70
2023/12/10 04:22:50;;;;;;;0.97;0.47;;;;;;;7.44;100.00;95606.13;4997925;28;20199;-69
2023/12/10 04:25:17;;;;;;;0.40;0.40;;;;;;;7.45;100.00;95606.94;4997154;28;20206;-70
2023/12/10 04:27:45;;;;;;;0.60;0.60;;;;;;;7.59;100.00;95612.25;4997903;28;20229;-69
2023/12/10 04:30:12;;;;;;;1.37;0.50;;;;;;;7.41;100.00;95627.44;4996980;28;20252;-69
2023/12/10 04:32:38;;;;;;;3.50;1.33;;;;;;;7.46;100.00;95632.97;4997538;28;20202;-69
2023/12/10 04:35:05;;;;;;;2.30;0.90;;;;;;;7.59;100.00;95630.59;4997524;28;20202;-69
2023/12/10 04:37:32;;;;;;;2.33;0.73;;;;;;;7.45;100.00;95638.41;4997535;28;20225;-69
2023/12/10 04:39:58;;;;;;;0.90;0.80;;;;;;;7.52;100.00;95640.16;4996608;28;20241;-69
2023/12/10 04:42:25;;;;;;;1.17;0.53;;;;;;;7.35;100.00;95643.03;4996896;28;20682;-70
2023/12/10 04:44:53;;;;;;;1.10;0.97;;;;;;;7.51;100.00;95648.19;4997504;28;20198;-69
2023/12/10 04:47:19;;;;;;;4.40;0.90;;;;;;;7.38;100.00;95648.75;4997930;28;20213;-69
2023/12/10 04:49:46;;;;;;;4.10;1.97;;;;;;;7.32;100.00;95651.25;5000184;28;20749;-70
2023/12/10 04:52:12;;;;;;;1.43;1.00;;;;;;;7.29;100.00;95660.28;5000558;28;20210;-69
2023/12/10 04:54:39;;;;;;;5.37;1.23;;;;;;;7.25;100.00;95650.28;5001120;28;20235;-69
2023/12/10 04:57:05;;;;;;;3.23;1.07;;;;;;;7.39;100.00;95644.31;5001399;28;20206;-69
2023/12/10 04:59:32;;;;;;;3.97;1.07;;;;;;;7.21;100.00;95656.06;5000382;28;20229;-69
2023/12/10 05:02:00;;;;;;;0.50;0.50;;;;;;;7.34;100.00;95662.38;5000896;28;20691;-69
2023/12/10 05:04:26;;;;;;;2.03;0.83;;;;;;;7.28;100.00;95660.44;5000594;28;20202;-69
2023/12/10 05:06:53;;;;;;;6.80;1.73;;;;;;;7.43;100.00;95650.84;5001048;28;20293;-69
2023/12/10 05:09:19;;;;;;;4.50;1.33;;;;;;;7.56;100.00;95645.84;5003226;28;20205;-70
2023/12/10 05:11:46;;;;;;;9.33;1.53;;;;;;;7.55;100.00;95654.72;5001399;28;20237;-69
2023/12/10 05:14:12;;;;;;;2.87;1.37;;;;;;;7.46;100.00;95656.56;5000013;28;20237;-69
2023/12/10 05:16:39;;;;;;;3.53;1.00;;;;;;;7.45;100.00;95660.16;5001059;28;20210;-68
2023/12/10 05:19:06;;;;;;;8.87;1.73;;;;;;;7.64;100.00;95674.66;5000175;28;21040;-69
2023/12/10 05:21:34;;;;;;;10.53;1.20;;;;;;;7.59;100.00;95666.50;4999815;28;20230;-69
2023/12/10 05:24:01;;;;;;;3.73;1.17;;;;;;;7.57;100.00;95673.72;5000243;28;20210;-69
2023/12/10 05:26:27;;;;;;;7.53;1.27;;;;;;;7.65;100.00;95677.13;5003324;28;20202;-68
2023/12/10 05:28:54;;;;;;;2.83;0.90;;;;;;;7.57;100.00;95689.44;5000374;28;20301;-69
2023/12/10 05:31:20;;;;;;;3.40;1.00;;;;;;;7.63;100.00;95700.06;5000116;28;20237;-69
2023/12/10 05:33:47;;;;;;;4.23;1.37;;;;;;;7.72;100.00;95709.50;5000573;28;20236;-69
2023/12/10 05:36:15;;;;;;;7.93;2.37;;;;;;;7.69;100.00;95722.13;5000080;28;20248;-69
2023/12/10 05:38:41;;;;;;;3.57;0.83;;;;;;;7.76;100.00;95716.03;4999597;28;20210;-69
2023/12/10 05:41:08;;;;;;;2.07;1.13;;;;;;;7.76;100.00;95729.16;5000044;28;20233;-69
2023/12/10 05:43:34;;;;;;;3.70;1.37;;;;;;;7.73;100.00;95737.38;4999981;28;20202;-69
2023/12/10 05:46:01;;;;;;;5.93;1.50;;;;;;;7.65;100.00;95734.78;5003912;28;20766;-69
2023/12/10 05:48:28;;;;;;;4.83;0.83;;;;;;;7.79;100.00;95736.69;4999946;28;20213;-69
2023/12/10 05:50:54;;;;;;;2.50;0.70;;;;;;;7.74;100.00;95749.50;4999283;28;21262;-69
2023/12/10 05:53:22;;;;;;;2.50;1.13;;;;;;;7.81;100.00;95752.25;4999398;28;20230;-69
2023/12/10 05:55:48;;;;;;;4.50;1.13;;;;;;;7.76;100.00;95747.50;4999947;28;20221;-69
2023/12/10 05:58:15;;;;;;;4.20;1.10;;;;;;;7.86;100.00;95749.94;5004674;28;20205;-69
2023/12/10 06:00:41;;;;;;;7.33;1.20;;;;;;;7.86;100.00;95763.84;5000361;28;20595;-69
2023/12/10 06:03:08;;;;;;;2.00;0.87;;;;;;;7.86;100.00;95774.34;5006390;28;20681;-69
2023/12/10 06:05:35;;;;;;;2.43;1.00;;;;;;;7.84;100.00;95771.09;4999448;28;20218;-69
2023/12/10 06:08:01;;;;;;;10.00;1.80;;;;;;;7.94;100.00;95774.31;4999396;28;20206;-69
2023/12/10 06:10:29;;;;;;;4.63;1.53;;;;;;;7.95;100.00;95775.94;4997982;28;20249;-69
2023/12/10 06:12:56;;;;;;;5.53;1.30;;;;;;;7.71;100.00;95776.06;5006609;28;20206;-69
2023/12/10 06:15:22;;;;;;;24.80;2.30;;;;;;;7.73;100.00;95774.09;5006551;28;20226;-69
2023/12/10 06:17:49;;;;;;;5.33;1.30;;;;;;;7.72;100.00;95787.38;5006511;28;20217;-69
2023/12/10 06:20:15;;;;;;;7.73;1.53;;;;;;;7.80;100.00;95793.38;4998690;28;20236;-70
2023/12/10 06:22:42;;;;;;;6.03;1.27;;;;;;;7.75;100.00;95798.34;4999622;28;20209;-70
2023/12/10 06:25:09;;;;;;;5.10;2.00;;;;;;;7.74;100.00;95807.19;4999267;28;20268;-70
2023/12/10 06:27:37;;;;;;;5.13;1.57;;;;;;;7.85;100.00;95814.66;4999452;28;20705;-71
2023/12/10 06:30:04;;;;;;;6.17;1.83;;;;;;;7.74;100.00;95815.06;4999079;28;20223;-70
2023/12/10 06:32:30;;;;;;;3.03;1.43;;;;;;;7.57;100.00;95810.84;4999121;28;20217;-71
2023/12/10 06:34:58;;;;;;;2.53;1.50;;;;;;;7.27;100.00;95798.50;4998598;28;20237;-70
2023/12/10 06:37:24;;;;;;;8.40;1.77;;;;;;;7.32;100.00;95801.44;4999007;28;20210;-71
2023/12/10 06:39:51;;;;;;;10.67;1.40;;;;;;;7.47;100.00;95805.00;4998948;28;20226;-71
2023/12/10 06:42:17;;;;;;;8.47;1.40;;;;;;;7.34;100.00;95815.19;5001212;28;20207;-71
2023/12/10 06:44:45;;;;;;;3.30;1.10;;;;;;;7.45;100.00;95825.31;4998858;28;20325;-71
2023/12/10 06:47:12;;;;;;;8.87;2.57;;;;;;;7.48;100.00;95838.06;4998711;28;20218;-70
2023/12/10 06:49:38;;;;;;;4.00;1.33;;;;;;;7.39;100.00;95830.41;4998954;28;20214;-70
2023/12/10 06:52:05;;;;;;;7.40;1.43;;;;;;;7.40;100.00;95829.44;4999307;28;20217;-69
2023/12/10 06:54:31;;;;;;;10.07;1.40;;;;;;;7.60;100.00;95823.63;4998419;28;20673;-69
2023/12/10 06:56:58;;;;;;;10.13;2.90;;;;;;;7.47;100.00;95836.47;4998756;28;20206;-69
2023/12/10 06:59:24;;;;;;;9.67;1.87;;;;;;;7.50;100.00;95846.59;5002713;28;20210;-69
2023/12/10 07:01:52;;;;;;;11.30;3.00;;;;;;;7.64;100.00;95842.47;4998740;28;20210;-69
2023/12/10 07:04:19;;;;;;;2.33;0.97;;;;;;;7.61;100.00;95853.28;4997684;28;20217;-70
2023/12/10 07:06:45;;;;;;;3.43;1.70;;;;;;;7.63;100.00;95856.56;4999099;28;20203;-69
2023/12/10 07:09:12;;;;;;;8.40;1.40;;;;;;;7.74;100.00;95862.28;4998307;28;20225;-69
2023/12/10 07:11:38;;;;;;;6.00;1.37;;;;;;;7.65;100.00;95871.16;4997632;28;20272;-69
2023/12/10 07:14:05;;;;;;;4.67;1.33;;;;;;;7.67;100.00;95881.47;4998969;28;20599;-69
2023/12/10 07:16:31;;;;;;;10.23;1.80;;;;;;;7.59;100.00;95881.50;4997636;28;20213;-69
2023/12/10 07:18:59;;;;;;;4.57;1.37;;;;;;;7.67;100.00;95886.72;4997752;28;20214;-69
2023/12/10 07:21:26;;;;;;;0.50;0.50;;;;;;;7.62;100.00;95896.88;4998695;28;20229;-69
2023/12/10 07:23:52;;;;;;;5.93;1.07;;;;;;;7.66;100.00;95892.94;4998539;28;20206;-69
2023/12/10 07:26:22;;;;;;;4.83;1.20;;;;;;;7.75;100.00;95898.00;4997441;28;20234;-69
2023/12/10 07:28:48;;;;;;;2.60;1.40;;;;;;;7.53;100.00;95917.03;4999421;28;20206;-70
2023/12/10 07:31:15;;;;;;;4.43;1.37;;;;;;;7.71;100.00;95911.59;5004052;28;20227;-69
2023/12/10 07:33:42;;;;;;;4.37;1.53;;;;;;;7.62;100.00;95910.00;4998099;28;20217;-69
2023/12/10 07:36:10;;;;;;;5.93;1.33;;;;;;;7.85;100.00;95916.16;4997718;28;20206;-69
2023/12/10 07:38:37;;;;;;;3.93;1.10;;;;;;;7.46;100.00;95923.94;4997590;28;20210;-70
2023/12/10 07:41:04;;;;;;;13.60;1.57;;;;;;;7.60;100.00;95925.06;4998368;28;20236;-69
2023/12/10 07:43:31;;;;;;;2.13;0.83;;;;;;;7.70;100.00;95925.69;4997663;28;20207;-69
2023/12/10 07:45:58;;;;;;;5.13;2.13;;;;;;;7.54;100.00;95921.31;4997877;28;20202;-69
2023/12/10 07:48:24;;;;;;;3.57;1.63;;;;;;;7.59;100.00;95926.06;4996634;28;20199;-69
2023/12/10 07:50:51;;;;;;;2.70;0.90;;;;;;;7.69;100.00;95943.25;4997425;28;20226;-70
2023/12/10 07:53:19;;;;;;;3.43;0.80;;;;;;;7.89;100.00;95941.88;4997219;28;20594;-69
2023/12/10 07:55:45;;;;;;;2.53;1.10;;;;;;;7.83;100.00;95955.69;4996997;28;20712;-69
2023/12/10 07:58:12;;;;;;;6.33;1.40;;;;;;;7.97;100.00;95947.13;5002502;28;20202;-70
2023/12/10 08:00:39;;;;;;;3.20;1.10;;;;;;;7.77;100.00;95953.72;4997242;28;20222;-70
2023/12/10 08:03:06;;;;;;;8.03;1.17;;;;;;;7.94;100.00;95947.44;5001230;28;20260;-69
2023/12/10 08:05:33;;;;;;;7.70;1.53;;;;;;;7.93;100.00;95956.31;4999774;28;20276;-69
2023/12/10 08:08:03;;;;;;;4.57;0.90;;;;;;;7.86;100.00;95954.53;4997832;28;20511;-69
2023/12/10 08:10:31;;;;;;;5.40;2.57;;;;;;;7.96;100.00;95946.28;4996564;28;20307;-70
2023/12/10 08:12:58;;;;;;;7.90;2.30;;;;;;;7.89;100.00;95941.88;4997790;28;20390;-69
2023/12/10 08:15:25;;;;;;;6.07;1.00;;;;;;;7.81;100.00;95949.78;4996159;28;20232;-70
2023/12/10 08:17:52;;;;;;;6.63;1.23;;;;;;;7.86;100.00;95943.03;4997218;28;20199;-69
2023/12/10 08:20:18;;;;;;;3.27;0.70;;;;;;;7.87;100.00;95949.09;4996478;28;20225;-69
2023/12/10 08:22:47;;;;;;;4.00;1.47;;;;;;;7.92;100.00;95942.38;4997379;28;20217;-69
2023/12/10 08:25:14;;;;;;;10.60;1.80;;;;;;;7.89;100.00;95947.13;5004355;28;20221;-69
2023/12/10 08:27:42;;;;;;;6.80;1.57;;;;;;;8.02;100.00;95953.50;5000853;28;20474;-69
2023/12/10 08:30:09;;;;;;;3.00;1.53;;;;;;;8.08;100.00;95967.75;5000568;28;20672;-69
2023/12/10 08:32:36;;;;;;;2.53;0.83;;;;;;;7.90;100.00;95977.63;5001723;28;20214;-69
2023/12/10 08:35:02;;;;;;;6.60;1.00;;;;;;;7.91;100.00;95976.63;5000789;28;20469;-69
2023/12/10 08:37:29;;;;;;;9.00;1.67;;;;;;;8.02;100.00;95986.78;5006932;28;20794;-69
2023/12/10 08:39:55;;;;;;;10.03;2.40;;;;;;;8.12;100.00;95990.03;5001147;28;20222;-69
2023/12/10 08:42:22;;;;;;;7.47;1.50;;;;;;;8.04;100.00;95982.19;5000363;28;20203;-69
2023/12/10 08:44:49;;;;;;;2.70;0.90;;;;;;;8.24;100.00;95986.91;5000805;28;20202;-69
2023/12/10 08:47:16;;;;;;;4.90;1.10;;;;;;;8.15;100.00;95989.75;5000907;28;20209;-69
2023/12/10 08:49:43;;;;;;;1.70;1.00;;;;;;;8.09;100.00;95987.75;4999771;28;20233;-69
2023/12/10 08:52:10;;;;;;;3.33;1.40;;;;;;;8.35;100.00;95988.34;5000349;28;20206;-69
2023/12/10 08:54:36;;;;;;;3.97;1.00;;;;;;;8.35;100.00;95996.22;4999645;28;20270;-69
2023/12/10 08:57:03;;;;;;;1.13;0.80;;;;;;;8.37;100.00;95995.06;5000454;28;20213;-69
2023/12/10 08:59:30;;;;;;;2.00;0.63;;;;;;;8.11;100.00;96001.53;4999392;28;20210;-71
2023/12/10 09:01:58;;;;;;;2.30;0.63;;;;;;;8.61;100.00;95998.41;5001508;28;20606;-70
2023/12/10 09:04:24;;;;;;;4.73;1.13;;;;;;;8.24;100.00;95988.75;5006528;28;20660;-71
2023/12/10 09:06:51;;;;;;;8.40;1.20;;;;;;;8.54;100.00;96005.34;5000151;28;20221;-71
2023/12/10 09:09:17;;;;;;;4.57;0.70;;;;;;;8.42;100.00;95997.22;5000102;28;20203;-71
2023/12/10 09:11:44;;;;;;;3.97;0.63;;;;;;;8.53;100.00;95998.47;5008267;28;20245;-71
2023/12/10 09:14:12;;;;;;;6.53;1.30;;;;;;;8.72;100.00;96003.31;5000855;28;20199;-71
2023/12/10 09:16:39;;;;;;;12.33;3.10;;;;;;;8.28;100.00;96001.34;5000602;28;20644;-71
2023/12/10 09:19:06;;;;;;;5.53;1.73;;;;;;;8.65;100.00;96010.22;5000552;28;20209;-72
2023/12/10 09:21:33;;;;;;;1.07;0.70;;;;;;;8.57;100.00;96012.88;5000158;28;20239;-71
2023/12/10 09:23:59;;;;;;;7.17;1.20;;;;;;;8.57;100.00;96014.69;5000505;28;20210;-71
2023/12/10 09:26:26;;;;;;;6.23;1.00;;;;;;;8.65;100.00;96025.97;5008704;28;20198;-70
2023/12/10 09:28:53;;;;;;;3.50;0.90;;;;;;;8.68;100.00;96030.91;5007509;28;20677;-70
2023/12/10 09:31:19;;;;;;;9.33;1.07;;;;;;;8.72;100.00;96034.84;5013238;28;20226;-69
2023/12/10 09:33:46;;;;;;;5.80;1.30;;;;;;;8.92;100.00;96030.78;5002957;28;20213;-70
2023/12/10 09:36:13;;;;;;;0.83;0.47;;;;;;;9.09;100.00;96038.41;5000493;28;20221;-70
2023/12/10 09:38:40;;;;;;;1.43;0.70;;;;;;;8.73;100.00;96031.22;4999451;28;20202;-70
2023/12/10 09:41:07;;;;;;;3.00;0.97;;;;;;;8.95;100.00;96029.63;5000597;28;20690;-70
2023/12/10 09:43:33;;;;;;;5.60;1.00;;;;;;;8.88;100.00;96042.63;5001209;28;20202;-70
2023/12/10 09:46:00;;;;;;;4.47;1.00;;;;;;;8.98;100.00;96040.63;5007922;28;20342;-70
2023/12/10 09:48:28;;;;;;;4.47;1.50;;;;;;;9.17;100.00;96034.94;4999058;28;20202;-70
2023/12/10 09:50:55;;;;;;;3.83;1.60;;;;;;;9.09;100.00;96034.97;5000316;28;20238;-70
2023/12/10 09:53:23;;;;;;;4.60;0.67;;;;;;;9.09;100.00;96034.97;4999964;28;20199;-71
2023/12/10 09:55:49;;;;;;;5.17;0.97;;;;;;;9.08;100.00;96043.03;4999445;28;20222;-70
2023/12/10 09:58:16;;;;;;;3.30;0.70;;;;;;;9.27;100.00;96046.06;4999674;28;20195;-70
2023/12/10 10:00:42;;;;;;;2.93;0.77;;;;;;;9.13;100.00;96038.91;5000020;28;20222;-69
2023/12/10 10:03:09;;;;;;;2.10;0.60;;;;;;;9.32;100.00;96046.34;5000228;28;20203;-71
2023/12/10 10:05:35;;;;;;;6.13;1.17;;;;;;;9.17;100.00;96046.25;5001027;28;20205;-69
2023/12/10 10:08:02;;;;;;;5.17;1.13;;;;;;;9.30;100.00;96040.44;5000165;28;20206;-69
2023/12/10 10:10:30;;;;;;;4.80;1.13;;;;;;;9.33;100.00;96033.03;4998569;28;20226;-70
2023/12/10 10:12:58;;;;;;;6.23;0.90;;;;;;;9.26;100.00;96037.31;5000302;28;20206;-70
2023/12/10 10:15:28;;;;;;;4.80;1.03;;;;;;;9.71;100.00;96038.16;4999335;28;20317;-70
2023/12/10 10:17:55;;;;;;;2.53;1.30;;;;;;;9.37;100.00;96046.66;4999118;28;20207;-71
2023/12/10 10:20:22;;;;;;;3.70;0.87;;;;;;;9.36;100.00;96051.06;4998348;28;20230;-70
2023/12/10 10:22:49;;;;;;;7.13;1.37;;;;;;;9.29;100.00;96037.00;4998884;28;20198;-70
2023/12/10 10:25:15;;;;;;;3.40;0.60;;;;;;;9.37;100.00;96044.03;5000348;28;20203;-71
2023/12/10 10:27:43;;;;;;;5.60;1.40;;;;;;;9.68;100.00;96055.31;4999566;28;20202;-69
2023/12/10 10:30:10;;;;;;;7.43;1.70;;;;;;;9.48;100.00;96056.75;4998958;28;20709;-69
2023/12/10 10:32:38;;;;;;;1.40;0.90;;;;;;;9.71;100.00;96056.59;4998874;28;20226;-70
2023/12/10 10:35:06;;;;;;;1.10;0.67;;;;;;;9.63;100.00;96045.28;4999739;28;20225;-70
2023/12/10 10:37:33;;;;;;;8.70;1.23;;;;;;;9.61;100.00;96063.09;5005689;28;20206;-71
2023/12/10 10:40:00;;;;;;;5.07;1.10;;;;;;;9.64;100.00;96051.41;4998350;28;20228;-71
2023/12/10 10:42:26;;;;;;;5.90;1.30;;;;;;;9.99;100.00;96056.88;5007122;28;20225;-71
2023/12/10 10:44:54;;;;;;;3.90;1.37;;;;;;;10.16;100.00;96053.94;4998760;28;20209;-70
2023/12/10 10:47:23;;;;;;;6.47;1.80;;;;;;;10.00;100.00;96046.16;4998580;28;20203;-69
2023/12/10 10:49:52;;;;;;;3.47;0.80;;;;;;;10.07;100.00;96044.47;4998025;28;20222;-69
2023/12/10 10:52:22;;;;;;;6.23;0.70;;;;;;;9.95;100.00;96053.78;4999288;28;20793;-69
2023/12/10 10:54:49;;;;;;;1.27;1.00;;;;;;;9.75;100.00;96055.25;4997916;28;20214;-69
2023/12/10 10:57:28;;;;;;;1.90;1.00;;;;;;;9.75;100.00;96054.44;4999081;28;20209;-69
2023/12/10 10:59:56;;;;;;;1.03;0.80;;;;;;;9.62;100.00;96054.19;4999459;28;20234;-69
2023/12/10 11:02:23;;;;;;;1.03;0.77;;;;;;;9.68;100.00;96051.66;4999106;28;20214;-71
2023/12/10 11:04:50;;;;;;;3.93;1.50;;;;;;;9.68;100.00;96058.75;4998214;28;20198;-70
2023/12/10 11:07:19;;;;;;;3.00;1.17;;;;;;;9.77;100.00;96058.50;4998523;28;20204;-69
2023/12/10 11:09:58;;;;;;;1.10;0.70;;;;;;;9.83;100.00;96052.53;4998575;28;20233;-70
2023/12/10 11:12:46;;;;;;;3.43;1.20;;;;;;;9.84;100.00;96054.19;4998374;28;20265;-70
2023/12/10 11:15:29;;;;;;;3.57;1.00;;;;;;;10.06;100.00;96052.56;5006556;28;20223;-70
2023/12/10 11:17:59;;;;;;;5.37;1.07;;;;;;;9.94;100.00;96040.75;4996075;28;20778;-70
2023/12/10 11:20:37;;;;;;;4.63;1.20;;;;;;;10.04;100.00;96050.09;4997352;28;20609;-69
2023/12/10 11:23:05;;;;;;;3.47;1.07;;;;;;;9.81;100.00;96053.72;4998307;28;20210;-69
2023/12/10 11:25:31;;;;;;;9.90;1.67;;;;;;;9.72;100.00;96050.34;4998322;28;20203;-69
2023/12/10 11:27:59;;;;;;;4.43;1.00;;;;;;;9.85;100.00;96061.09;4998553;28;20211;-70
2023/12/10 11:30:25;;;;;;;4.23;1.47;;;;;;;9.49;100.00;96059.19;4997742;28;20616;-69